createdAt,value
2019-04-29T00:00:47.924Z,9.30
2019-04-29T00:04:50.960Z,9.30
2019-04-29T00:08:55.797Z,9.30
2019-04-29T00:12:58.920Z,9.30
2019-04-29T00:17:19.872Z,9.30
2019-04-29T00:21:24.294Z,9.20
2019-04-29T00:25:27.251Z,9.30
2019-04-29T00:29:32.343Z,9.30
2019-04-29T00:33:35.199Z,9.40
2019-04-29T00:38:04.087Z,9.30
2019-04-29T00:42:26.767Z,9.30
2019-04-29T00:46:30.261Z,9.40
2019-04-29T00:50:33.123Z,9.20
2019-04-29T00:54:55.485Z,9.20
2019-04-29T00:58:58.375Z,9.10
2019-04-29T01:03:01.632Z,9.30
2019-04-29T01:07:06.247Z,9.30
2019-04-29T01:11:12.431Z,9.10
2019-04-29T01:15:15.496Z,9.20
2019-04-29T01:19:18.630Z,9.10
2019-04-29T01:23:21.693Z,9.20
2019-04-29T01:27:29.511Z,9.30
2019-04-29T01:31:32.741Z,9.20
2019-04-29T01:35:35.627Z,9.30
2019-04-29T01:39:46.143Z,9.30
2019-04-29T01:43:58.761Z,9.40
2019-04-29T01:48:03.658Z,9.40
2019-04-29T01:52:09.635Z,9.40
2019-04-29T01:56:12.631Z,9.40
2019-04-29T02:00:17.208Z,9.40
2019-04-29T02:04:20.227Z,9.40
2019-04-29T02:08:23.220Z,9.40
2019-04-29T02:12:28.245Z,9.50
2019-04-29T02:16:31.305Z,9.40
2019-04-29T02:20:34.318Z,9.40
2019-04-29T02:24:38.956Z,9.40
2019-04-29T02:28:42.076Z,9.50
2019-04-29T02:32:45.082Z,9.40
2019-04-29T02:36:49.682Z,9.40
2019-04-29T02:41:18.384Z,9.40
2019-04-29T02:45:28.704Z,9.40
2019-04-29T02:49:31.652Z,9.40
2019-04-29T02:53:34.750Z,9.40
2019-04-29T02:57:42.820Z,9.50
2019-04-29T03:01:58.355Z,9.30
2019-04-29T03:06:00.778Z,9.30
2019-04-29T03:10:03.921Z,9.20
2019-04-29T03:14:06.938Z,9.30
2019-04-29T03:18:10.257Z,9.40
2019-04-29T03:22:16.157Z,9.40
2019-04-29T03:26:20.028Z,9.50
2019-04-29T03:30:23.038Z,9.60
2019-04-29T03:34:26.481Z,9.50
2019-04-29T03:38:29.520Z,9.50
2019-04-29T03:42:32.524Z,9.50
2019-04-29T03:46:35.451Z,9.60
2019-04-29T03:50:38.429Z,9.50
2019-04-29T03:54:41.378Z,9.40
2019-04-29T03:58:47.762Z,9.30
2019-04-29T04:03:16.451Z,9.20
2019-04-29T04:07:47.787Z,9.40
2019-04-29T04:11:52.457Z,9.30
2019-04-29T04:15:55.547Z,9.30
2019-04-29T04:20:02.234Z,9.20
2019-04-29T04:24:05.183Z,9.20
2019-04-29T04:28:08.149Z,9.10
2019-04-29T04:32:12.886Z,9.10
2019-04-29T04:36:15.851Z,9.20
2019-04-29T04:40:26.675Z,9.20
2019-04-29T04:44:49.493Z,9.10
2019-04-29T04:48:52.604Z,9.10
2019-04-29T04:52:57.347Z,9.30
2019-04-29T04:57:00.310Z,9.20
2019-04-29T05:01:03.425Z,9.30
2019-04-29T05:05:08.295Z,9.30
2019-04-29T05:09:15.665Z,9.40
2019-04-29T05:13:27.276Z,9.40
2019-04-29T05:17:20.791Z,9.40
2019-04-29T05:21:23.788Z,9.50
2019-04-29T05:25:29.083Z,9.40
2019-04-29T05:29:32.101Z,9.30
2019-04-29T05:33:39.342Z,9.40
2019-04-29T05:37:49.059Z,9.40
2019-04-29T05:41:52.006Z,9.50
2019-04-29T05:46:08.424Z,9.60
2019-04-29T05:50:25.378Z,9.60
2019-04-29T05:54:31.606Z,9.70
2019-04-29T05:58:37.787Z,9.70
2019-04-29T06:02:41.200Z,9.60
2019-04-29T06:06:44.136Z,9.60
2019-04-29T06:10:47.073Z,9.70
2019-04-29T06:14:51.945Z,9.70
2019-04-29T06:19:00.103Z,9.70
2019-04-29T06:22:59.778Z,9.70
2019-04-29T06:27:02.741Z,9.70
2019-04-29T06:31:05.718Z,9.70
2019-04-29T06:35:14.198Z,9.90
2019-04-29T06:39:15.624Z,9.90
2019-04-29T06:43:18.610Z,9.90
2019-04-29T06:47:21.587Z,10.00
2019-04-29T06:51:24.553Z,10.10
2019-04-29T06:55:27.461Z,10.10
2019-04-29T06:59:33.174Z,10.00
2019-04-29T07:03:37.479Z,10.00
2019-04-29T07:07:40.413Z,10.10
2019-04-29T07:11:43.440Z,10.10
2019-04-29T07:15:47.754Z,10.10
2019-04-29T07:23:59.312Z,10.20
2019-04-29T07:28:02.267Z,10.20
2019-04-29T07:32:09.236Z,10.30
2019-04-29T07:36:11.449Z,10.10
2019-04-29T07:40:17.057Z,10.30
2019-04-29T07:44:20.062Z,10.30
2019-04-29T07:48:23.100Z,10.40
2019-04-29T07:52:26.280Z,10.40
2019-04-29T07:56:29.180Z,10.30
2019-04-29T08:00:35.611Z,10.30
2019-04-29T08:04:40.383Z,10.30
2019-04-29T08:08:54.207Z,10.30
2019-04-29T08:12:50.536Z,10.30
2019-04-29T08:16:55.400Z,10.10
2019-04-29T08:20:58.545Z,10.30
2019-04-29T08:25:01.573Z,10.30
2019-04-29T08:29:04.949Z,10.40
2019-04-29T08:33:11.941Z,10.40
2019-04-29T08:37:12.790Z,10.40
2019-04-29T08:41:15.707Z,10.40
2019-04-29T08:45:39.039Z,10.30
2019-04-29T08:49:41.406Z,10.30
2019-04-29T08:53:44.484Z,10.20
2019-04-29T08:57:47.610Z,10.30
2019-04-29T09:01:50.634Z,10.20
2019-04-29T09:06:05.028Z,10.20
2019-04-29T09:10:02.035Z,10.20
2019-04-29T09:14:03.248Z,10.40
2019-04-29T09:18:06.213Z,10.40
2019-04-29T09:22:11.150Z,10.40
2019-04-29T09:26:25.243Z,10.60
2019-04-29T09:30:28.670Z,10.50
2019-04-29T09:34:31.608Z,10.50
2019-04-29T09:38:36.791Z,10.50
2019-04-29T09:42:58.783Z,10.50
2019-04-29T09:47:04.132Z,10.50
2019-04-29T09:51:17.361Z,10.50
2019-04-29T09:55:11.554Z,10.60
2019-04-29T09:59:46.301Z,10.70
2019-04-29T10:04:07.618Z,10.70
2019-04-29T10:08:10.669Z,10.90
2019-04-29T10:12:13.849Z,11.00
2019-04-29T10:16:36.052Z,11.10
2019-04-29T10:20:45.694Z,11.10
2019-04-29T10:24:48.669Z,11.20
2019-04-29T10:28:56.595Z,11.30
2019-04-29T10:32:59.760Z,11.40
2019-04-29T10:37:04.668Z,11.40
2019-04-29T10:41:14.887Z,11.40
2019-04-29T10:45:40.733Z,11.70
2019-04-29T10:49:54.709Z,11.60
2019-04-29T10:53:57.804Z,11.70
2019-04-29T10:58:00.847Z,11.70
2019-04-29T11:02:35.122Z,11.80
2019-04-29T11:06:38.459Z,12.10
2019-04-29T11:10:41.558Z,12.10
2019-04-29T11:14:47.578Z,12.10
2019-04-29T11:18:55.065Z,12.10
2019-04-29T11:23:04.428Z,13.20
2019-04-29T11:27:26.582Z,14.20
2019-04-29T11:31:29.757Z,13.80
2019-04-29T11:35:40.689Z,13.60
2019-04-29T11:39:46.161Z,13.60
2019-04-29T11:43:51.088Z,14.20
2019-04-29T11:47:53.858Z,15.00
2019-04-29T11:52:09.183Z,14.80
2019-04-29T11:56:01.825Z,15.30
2019-04-29T12:00:32.216Z,17.00
2019-04-29T12:04:41.990Z,16.20
2019-04-29T12:08:48.237Z,15.60
2019-04-29T12:12:49.557Z,17.20
2019-04-29T12:17:10.650Z,18.00
2019-04-29T12:21:19.560Z,16.70
2019-04-29T12:25:23.033Z,16.50
2019-04-29T12:29:27.536Z,17.60
2019-04-29T12:33:44.268Z,17.10
2019-04-29T12:38:15.756Z,17.80
2019-04-29T12:42:40.175Z,18.20
2019-04-29T12:47:01.147Z,18.40
2019-04-29T12:51:04.253Z,18.10
2019-04-29T12:55:19.745Z,18.60
2019-04-29T12:59:13.146Z,18.30
2019-04-29T13:03:30.902Z,19.10
2019-04-29T13:07:51.519Z,19.20
2019-04-29T13:12:10.985Z,19.40
2019-04-29T13:16:20.623Z,19.80
2019-04-29T13:20:24.877Z,19.90
2019-04-29T13:24:28.258Z,19.80
2019-04-29T13:28:34.488Z,20.30
2019-04-29T13:32:36.271Z,20.40
2019-04-29T13:36:39.241Z,20.50
2019-04-29T13:40:42.291Z,21.30
2019-04-29T13:45:04.467Z,21.50
2019-04-29T13:49:21.735Z,21.80
2019-04-29T13:53:24.751Z,22.70
2019-04-29T13:57:27.760Z,22.70
2019-04-29T14:01:57.801Z,23.50
2019-04-29T14:05:43.031Z,22.70
2019-04-29T14:09:47.839Z,22.20
2019-04-29T14:13:50.878Z,22.70
2019-04-29T14:17:53.890Z,23.10
2019-04-29T14:21:57.000Z,22.30
2019-04-29T14:25:59.962Z,23.10
2019-04-29T14:30:07.816Z,24.80
2019-04-29T14:34:30.697Z,25.90
2019-04-29T14:38:35.925Z,25.40
2019-04-29T14:43:25.419Z,25.10
2019-04-29T14:47:35.325Z,25.40
2019-04-29T14:51:40.211Z,25.10
2019-04-29T14:55:43.195Z,23.60
2019-04-29T14:59:48.032Z,22.40
2019-04-29T15:03:54.518Z,21.80
2019-04-29T15:07:58.872Z,21.70
2019-04-29T15:12:12.498Z,20.70
2019-04-29T15:16:35.019Z,20.60
2019-04-29T15:20:43.549Z,20.10
2019-04-29T15:24:48.409Z,19.30
2019-04-29T15:28:56.391Z,19.30
2019-04-29T15:32:59.826Z,19.40
2019-04-29T15:37:05.565Z,19.40
2019-04-29T15:41:09.825Z,19.20
2019-04-29T15:45:14.275Z,18.90
2019-04-29T15:49:20.048Z,18.70
2019-04-29T15:53:22.439Z,18.60
2019-04-29T15:57:25.321Z,18.60
2019-04-29T16:01:30.471Z,18.40
2019-04-29T16:10:25.568Z,18.00
2019-04-29T16:14:28.735Z,17.80
2019-04-29T16:18:31.974Z,17.70
2019-04-29T16:22:39.140Z,17.60
2019-04-29T16:26:39.882Z,17.20
2019-04-29T16:30:42.883Z,17.10
2019-04-29T16:34:47.027Z,16.90
2019-04-29T16:38:51.358Z,16.90
2019-04-29T16:43:05.936Z,16.50
2019-04-29T16:47:13.297Z,16.40
2019-04-29T16:51:17.126Z,16.50
2019-04-29T16:55:21.721Z,16.20
2019-04-29T16:59:24.714Z,16.40
2019-04-29T17:03:27.709Z,16.00
2019-04-29T17:07:30.774Z,16.00
2019-04-29T17:11:37.816Z,16.00
2019-04-29T17:15:44.470Z,15.60
2019-04-29T17:19:48.290Z,15.40
2019-04-29T17:23:52.886Z,15.30
2019-04-29T17:28:24.102Z,15.40
2019-04-29T17:32:47.611Z,15.40
2019-04-29T17:35:15.559Z,18.10
2019-04-29T17:36:48.170Z,15.00
2019-04-29T17:40:51.526Z,15.00
2019-04-29T17:45:10.091Z,15.10
2019-04-29T17:49:22.145Z,15.10
2019-04-29T17:53:30.699Z,15.00
2019-04-29T17:57:38.805Z,14.70
2019-04-29T18:01:55.268Z,14.70
2019-04-29T18:06:18.800Z,14.50
2019-04-29T18:10:38.621Z,14.60
2019-04-29T18:14:41.850Z,14.30
2019-04-29T18:19:03.259Z,14.00
2019-04-29T18:23:31.699Z,13.80
2019-04-29T18:27:36.876Z,13.80
2019-04-29T18:31:46.152Z,14.00
2019-04-29T18:35:49.408Z,13.70
2019-04-29T18:39:52.389Z,13.70
2019-04-29T18:43:56.444Z,13.50
2019-04-29T18:48:00.170Z,13.40
2019-04-29T18:52:05.665Z,13.00
2019-04-29T18:56:08.124Z,12.90
2019-04-29T19:00:19.286Z,13.10
2019-04-29T19:04:25.459Z,12.80
2019-04-29T19:08:31.647Z,13.00
2019-04-29T19:12:36.193Z,12.60
2019-04-29T19:16:39.563Z,12.50
2019-04-29T19:20:46.069Z,12.00
2019-04-29T19:24:48.229Z,12.10
2019-04-29T19:28:51.550Z,11.90
2019-04-29T19:33:00.362Z,12.10
2019-04-29T19:37:06.721Z,12.00
2019-04-29T19:41:11.583Z,11.70
2019-04-29T19:45:17.747Z,11.70
2019-04-29T19:49:20.627Z,11.70
2019-04-29T19:53:25.156Z,11.60
2019-04-29T19:57:28.171Z,11.60
2019-04-29T20:01:32.448Z,11.50
2019-04-29T20:05:41.678Z,11.40
2019-04-29T20:09:47.474Z,11.30
2019-04-29T20:14:02.223Z,11.20
2019-04-29T20:18:23.387Z,11.20
2019-04-29T20:22:22.496Z,11.10
2019-04-29T20:26:29.547Z,10.90
2019-04-29T20:30:31.376Z,10.80
2019-04-29T20:34:39.148Z,10.60
2019-04-29T20:38:42.345Z,10.60
2019-04-29T20:42:49.016Z,10.70
2019-04-29T20:47:13.202Z,10.60
2019-04-29T20:50:56.631Z,10.50
2019-04-29T20:55:02.531Z,10.70
2019-04-29T20:59:09.090Z,10.50
2019-04-29T21:03:11.409Z,10.40
2019-04-29T21:07:18.520Z,10.40
2019-04-29T21:11:27.746Z,10.30
2019-04-29T21:15:36.229Z,10.20
2019-04-29T21:19:39.596Z,10.10
2019-04-29T21:23:42.619Z,10.10
2019-04-29T21:27:48.266Z,9.80
2019-04-29T21:31:50.717Z,10.00
2019-04-29T21:36:07.389Z,10.30
2019-04-29T21:40:18.860Z,9.90
2019-04-29T21:44:23.665Z,9.70
2019-04-29T21:48:33.593Z,10.40
2019-04-29T21:52:31.752Z,9.80
2019-04-29T21:56:35.644Z,9.70
2019-04-29T22:00:38.784Z,9.70
2019-04-29T22:04:41.827Z,9.60
2019-04-29T22:08:45.299Z,9.40
2019-04-29T22:12:50.971Z,9.60
2019-04-29T22:16:54.272Z,9.60
2019-04-29T22:20:58.134Z,9.40
2019-04-29T22:25:05.803Z,9.10
2019-04-29T22:29:08.386Z,9.00
2019-04-29T22:33:11.292Z,9.10
2019-04-29T22:37:15.662Z,9.30
2019-04-29T22:41:28.173Z,9.30
2019-04-29T22:45:33.966Z,9.10
2019-04-29T22:49:36.056Z,9.10
2019-04-29T22:53:40.073Z,9.20
2019-04-29T22:57:45.215Z,9.00
2019-04-29T23:01:50.735Z,9.10
2019-04-29T23:06:00.227Z,9.10
2019-04-29T23:10:01.882Z,8.90
2019-04-29T23:14:06.679Z,8.70
2019-04-29T23:18:09.516Z,8.70
2019-04-29T23:22:39.160Z,8.50
2019-04-29T23:26:44.891Z,8.50
2019-04-29T23:30:52.237Z,8.60
2019-04-29T23:34:52.959Z,8.40
2019-04-29T23:38:56.683Z,8.20
2019-04-29T23:42:59.943Z,8.30
2019-04-29T23:47:05.164Z,8.30
2019-04-29T23:51:07.631Z,8.00
2019-04-29T23:55:10.674Z,7.90
2019-04-29T23:59:25.070Z,7.70
